sensor_id;sensor_type;location;lat;lon;timestamp;P1;durP1;ratioP1;P2;durP2;ratioP2
43891;SDS011;29555;45.350;5.578;2023-07-30T00:01:01;3.97;;;1.63;;
43891;SDS011;29555;45.350;5.578;2023-07-30T00:03:26;4.25;;;2.30;;
43891;SDS011;29555;45.350;5.578;2023-07-30T00:05:52;4.00;;;1.77;;
43891;SDS011;29555;45.350;5.578;2023-07-30T00:08:21;2.05;;;1.85;;
43891;SDS011;29555;45.350;5.578;2023-07-30T00:10:47;3.25;;;2.55;;
43891;SDS011;29555;45.350;5.578;2023-07-30T00:13:12;2.97;;;2.00;;
43891;SDS011;29555;45.350;5.578;2023-07-30T00:15:37;2.13;;;1.83;;
43891;SDS011;29555;45.350;5.578;2023-07-30T00:18:03;2.40;;;1.83;;
43891;SDS011;29555;45.350;5.578;2023-07-30T00:20:28;3.70;;;2.85;;
43891;SDS011;29555;45.350;5.578;2023-07-30T00:22:54;3.90;;;2.17;;
43891;SDS011;29555;45.350;5.578;2023-07-30T00:25:19;5.80;;;2.25;;
43891;SDS011;29555;45.350;5.578;2023-07-30T00:27:44;3.75;;;2.67;;
43891;SDS011;29555;45.350;5.578;2023-07-30T00:30:10;5.18;;;2.28;;
43891;SDS011;29555;45.350;5.578;2023-07-30T00:32:35;2.42;;;2.03;;
43891;SDS011;29555;45.350;5.578;2023-07-30T00:35:01;4.30;;;2.15;;
43891;SDS011;29555;45.350;5.578;2023-07-30T00:37:26;4.40;;;2.20;;
43891;SDS011;29555;45.350;5.578;2023-07-30T00:39:51;5.68;;;2.17;;
43891;SDS011;29555;45.350;5.578;2023-07-30T00:42:17;6.90;;;2.20;;
43891;SDS011;29555;45.350;5.578;2023-07-30T00:44:42;2.53;;;1.48;;
43891;SDS011;29555;45.350;5.578;2023-07-30T00:47:07;5.18;;;2.58;;
43891;SDS011;29555;45.350;5.578;2023-07-30T00:49:33;2.13;;;1.92;;
43891;SDS011;29555;45.350;5.578;2023-07-30T00:51:59;2.28;;;2.08;;
43891;SDS011;29555;45.350;5.578;2023-07-30T00:54:24;2.83;;;2.15;;
43891;SDS011;29555;45.350;5.578;2023-07-30T00:56:51;2.72;;;1.75;;
43891;SDS011;29555;45.350;5.578;2023-07-30T00:59:17;2.47;;;1.88;;
43891;SDS011;29555;45.350;5.578;2023-07-30T01:01:44;3.67;;;2.25;;
43891;SDS011;29555;45.350;5.578;2023-07-30T01:04:11;4.05;;;2.38;;
43891;SDS011;29555;45.350;5.578;2023-07-30T01:06:37;9.65;;;2.85;;
43891;SDS011;29555;45.350;5.578;2023-07-30T01:09:02;2.35;;;1.90;;
43891;SDS011;29555;45.350;5.578;2023-07-30T01:11:27;6.10;;;1.75;;
43891;SDS011;29555;45.350;5.578;2023-07-30T01:13:54;3.08;;;2.40;;
43891;SDS011;29555;45.350;5.578;2023-07-30T01:16:20;9.02;;;2.63;;
43891;SDS011;29555;45.350;5.578;2023-07-30T01:18:46;6.00;;;2.75;;
43891;SDS011;29555;45.350;5.578;2023-07-30T01:21:11;2.90;;;2.40;;
43891;SDS011;29555;45.350;5.578;2023-07-30T01:23:37;2.22;;;1.92;;
43891;SDS011;29555;45.350;5.578;2023-07-30T01:26:03;2.17;;;1.90;;
43891;SDS011;29555;45.350;5.578;2023-07-30T01:28:36;4.32;;;2.97;;
43891;SDS011;29555;45.350;5.578;2023-07-30T01:31:04;7.03;;;2.50;;
43891;SDS011;29555;45.350;5.578;2023-07-30T01:33:30;2.10;;;1.90;;
43891;SDS011;29555;45.350;5.578;2023-07-30T01:35:56;4.95;;;1.88;;
43891;SDS011;29555;45.350;5.578;2023-07-30T01:38:23;7.18;;;2.70;;
43891;SDS011;29555;45.350;5.578;2023-07-30T01:40:50;2.35;;;1.67;;
43891;SDS011;29555;45.350;5.578;2023-07-30T01:43:15;2.45;;;2.25;;
43891;SDS011;29555;45.350;5.578;2023-07-30T01:45:41;3.72;;;2.33;;
43891;SDS011;29555;45.350;5.578;2023-07-30T01:48:06;5.05;;;2.70;;
43891;SDS011;29555;45.350;5.578;2023-07-30T01:50:34;2.85;;;1.88;;
43891;SDS011;29555;45.350;5.578;2023-07-30T01:53:00;3.83;;;2.58;;
43891;SDS011;29555;45.350;5.578;2023-07-30T01:55:25;3.42;;;2.40;;
43891;SDS011;29555;45.350;5.578;2023-07-30T01:57:51;3.30;;;2.90;;
43891;SDS011;29555;45.350;5.578;2023-07-30T02:00:16;3.53;;;2.03;;
43891;SDS011;29555;45.350;5.578;2023-07-30T02:02:41;6.43;;;2.83;;
43891;SDS011;29555;45.350;5.578;2023-07-30T02:05:06;4.72;;;2.40;;
43891;SDS011;29555;45.350;5.578;2023-07-30T02:07:32;3.55;;;2.92;;
43891;SDS011;29555;45.350;5.578;2023-07-30T02:09:57;4.18;;;2.67;;
43891;SDS011;29555;45.350;5.578;2023-07-30T02:12:23;5.63;;;2.72;;
43891;SDS011;29555;45.350;5.578;2023-07-30T02:14:48;3.10;;;2.90;;
43891;SDS011;29555;45.350;5.578;2023-07-30T02:17:13;9.88;;;3.65;;
43891;SDS011;29555;45.350;5.578;2023-07-30T02:19:39;10.15;;;2.88;;
43891;SDS011;29555;45.350;5.578;2023-07-30T02:22:04;3.13;;;2.83;;
43891;SDS011;29555;45.350;5.578;2023-07-30T02:24:29;4.75;;;3.13;;
43891;SDS011;29555;45.350;5.578;2023-07-30T02:26:55;4.82;;;3.05;;
43891;SDS011;29555;45.350;5.578;2023-07-30T02:29:20;4.07;;;3.30;;
43891;SDS011;29555;45.350;5.578;2023-07-30T02:31:46;6.88;;;2.55;;
43891;SDS011;29555;45.350;5.578;2023-07-30T02:34:11;6.53;;;2.92;;
43891;SDS011;29555;45.350;5.578;2023-07-30T02:36:36;4.22;;;3.25;;
43891;SDS011;29555;45.350;5.578;2023-07-30T02:39:02;3.97;;;3.08;;
43891;SDS011;29555;45.350;5.578;2023-07-30T02:41:27;4.55;;;3.28;;
43891;SDS011;29555;45.350;5.578;2023-07-30T02:43:52;7.93;;;3.67;;
43891;SDS011;29555;45.350;5.578;2023-07-30T02:46:18;4.85;;;3.58;;
43891;SDS011;29555;45.350;5.578;2023-07-30T02:48:43;5.10;;;2.83;;
43891;SDS011;29555;45.350;5.578;2023-07-30T02:51:08;3.45;;;3.15;;
43891;SDS011;29555;45.350;5.578;2023-07-30T02:53:34;6.07;;;3.20;;
43891;SDS011;29555;45.350;5.578;2023-07-30T02:55:59;4.18;;;3.22;;
43891;SDS011;29555;45.350;5.578;2023-07-30T02:58:24;5.45;;;3.63;;
43891;SDS011;29555;45.350;5.578;2023-07-30T03:00:50;3.75;;;3.35;;
43891;SDS011;29555;45.350;5.578;2023-07-30T03:03:16;3.85;;;3.50;;
43891;SDS011;29555;45.350;5.578;2023-07-30T03:05:42;6.20;;;3.53;;
43891;SDS011;29555;45.350;5.578;2023-07-30T03:08:07;4.38;;;3.13;;
43891;SDS011;29555;45.350;5.578;2023-07-30T03:10:33;11.52;;;3.42;;
43891;SDS011;29555;45.350;5.578;2023-07-30T03:12:58;4.00;;;2.67;;
43891;SDS011;29555;45.350;5.578;2023-07-30T03:15:23;4.88;;;3.75;;
43891;SDS011;29555;45.350;5.578;2023-07-30T03:17:49;6.50;;;2.58;;
43891;SDS011;29555;45.350;5.578;2023-07-30T03:20:14;3.75;;;2.92;;
43891;SDS011;29555;45.350;5.578;2023-07-30T03:22:39;4.32;;;3.17;;
43891;SDS011;29555;45.350;5.578;2023-07-30T03:25:05;3.40;;;3.10;;
43891;SDS011;29555;45.350;5.578;2023-07-30T03:27:31;3.65;;;2.75;;
43891;SDS011;29555;45.350;5.578;2023-07-30T03:29:56;5.93;;;2.47;;
43891;SDS011;29555;45.350;5.578;2023-07-30T03:32:21;3.15;;;2.67;;
43891;SDS011;29555;45.350;5.578;2023-07-30T03:34:47;3.78;;;2.78;;
43891;SDS011;29555;45.350;5.578;2023-07-30T03:37:12;3.63;;;2.85;;
43891;SDS011;29555;45.350;5.578;2023-07-30T03:39:37;3.58;;;3.03;;
43891;SDS011;29555;45.350;5.578;2023-07-30T03:42:03;2.92;;;2.70;;
43891;SDS011;29555;45.350;5.578;2023-07-30T03:44:28;3.72;;;2.28;;
43891;SDS011;29555;45.350;5.578;2023-07-30T03:46:54;4.50;;;3.53;;
43891;SDS011;29555;45.350;5.578;2023-07-30T03:49:19;5.65;;;3.35;;
43891;SDS011;29555;45.350;5.578;2023-07-30T03:51:44;5.43;;;3.22;;
43891;SDS011;29555;45.350;5.578;2023-07-30T03:54:10;7.72;;;3.33;;
43891;SDS011;29555;45.350;5.578;2023-07-30T03:56:35;3.88;;;3.13;;
43891;SDS011;29555;45.350;5.578;2023-07-30T03:59:00;8.35;;;3.65;;
43891;SDS011;29555;45.350;5.578;2023-07-30T04:01:26;3.30;;;2.47;;
43891;SDS011;29555;45.350;5.578;2023-07-30T04:03:52;3.20;;;2.88;;
43891;SDS011;29555;45.350;5.578;2023-07-30T04:06:18;3.45;;;3.10;;
43891;SDS011;29555;45.350;5.578;2023-07-30T04:08:43;3.75;;;3.13;;
43891;SDS011;29555;45.350;5.578;2023-07-30T04:11:08;5.63;;;3.10;;
43891;SDS011;29555;45.350;5.578;2023-07-30T04:13:34;2.83;;;2.60;;
43891;SDS011;29555;45.350;5.578;2023-07-30T04:15:59;4.30;;;3.03;;
43891;SDS011;29555;45.350;5.578;2023-07-30T04:18:24;5.88;;;4.07;;
43891;SDS011;29555;45.350;5.578;2023-07-30T04:20:50;3.17;;;2.88;;
43891;SDS011;29555;45.350;5.578;2023-07-30T04:23:15;10.30;;;3.60;;
43891;SDS011;29555;45.350;5.578;2023-07-30T04:25:40;4.47;;;3.15;;
43891;SDS011;29555;45.350;5.578;2023-07-30T04:28:06;8.68;;;3.45;;
43891;SDS011;29555;45.350;5.578;2023-07-30T04:30:32;4.78;;;3.55;;
43891;SDS011;29555;45.350;5.578;2023-07-30T04:32:57;5.55;;;3.78;;
43891;SDS011;29555;45.350;5.578;2023-07-30T04:35:22;6.80;;;3.47;;
43891;SDS011;29555;45.350;5.578;2023-07-30T04:37:48;6.60;;;3.92;;
43891;SDS011;29555;45.350;5.578;2023-07-30T04:40:13;11.25;;;3.45;;
43891;SDS011;29555;45.350;5.578;2023-07-30T04:42:39;5.03;;;2.70;;
43891;SDS011;29555;45.350;5.578;2023-07-30T04:45:04;7.10;;;3.28;;
43891;SDS011;29555;45.350;5.578;2023-07-30T04:47:30;4.43;;;3.05;;
43891;SDS011;29555;45.350;5.578;2023-07-30T04:49:55;5.70;;;3.90;;
43891;SDS011;29555;45.350;5.578;2023-07-30T04:52:20;5.20;;;3.95;;
43891;SDS011;29555;45.350;5.578;2023-07-30T04:54:46;3.85;;;3.45;;
43891;SDS011;29555;45.350;5.578;2023-07-30T04:57:11;4.30;;;3.33;;
43891;SDS011;29555;45.350;5.578;2023-07-30T04:59:36;4.60;;;3.17;;
43891;SDS011;29555;45.350;5.578;2023-07-30T05:02:02;7.55;;;3.22;;
43891;SDS011;29555;45.350;5.578;2023-07-30T05:04:27;12.70;;;3.90;;
43891;SDS011;29555;45.350;5.578;2023-07-30T05:06:52;3.67;;;3.38;;
43891;SDS011;29555;45.350;5.578;2023-07-30T05:09:18;11.77;;;3.80;;
43891;SDS011;29555;45.350;5.578;2023-07-30T05:11:43;6.18;;;4.53;;
43891;SDS011;29555;45.350;5.578;2023-07-30T05:14:08;6.85;;;3.75;;
43891;SDS011;29555;45.350;5.578;2023-07-30T05:16:34;3.08;;;2.88;;
43891;SDS011;29555;45.350;5.578;2023-07-30T05:19:01;5.47;;;3.58;;
43891;SDS011;29555;45.350;5.578;2023-07-30T05:21:26;2.83;;;2.63;;
43891;SDS011;29555;45.350;5.578;2023-07-30T05:23:52;4.28;;;3.28;;
43891;SDS011;29555;45.350;5.578;2023-07-30T05:26:17;4.47;;;3.17;;
43891;SDS011;29555;45.350;5.578;2023-07-30T05:28:42;4.63;;;3.08;;
43891;SDS011;29555;45.350;5.578;2023-07-30T05:31:08;4.40;;;3.40;;
43891;SDS011;29555;45.350;5.578;2023-07-30T05:33:33;7.30;;;3.28;;
43891;SDS011;29555;45.350;5.578;2023-07-30T05:35:58;8.40;;;3.88;;
43891;SDS011;29555;45.350;5.578;2023-07-30T05:38:24;3.50;;;2.95;;
43891;SDS011;29555;45.350;5.578;2023-07-30T05:40:49;4.93;;;3.17;;
43891;SDS011;29555;45.350;5.578;2023-07-30T05:43:14;4.80;;;3.75;;
43891;SDS011;29555;45.350;5.578;2023-07-30T05:45:40;3.58;;;3.28;;
43891;SDS011;29555;45.350;5.578;2023-07-30T05:48:05;3.13;;;2.92;;
43891;SDS011;29555;45.350;5.578;2023-07-30T05:50:31;5.47;;;2.85;;
43891;SDS011;29555;45.350;5.578;2023-07-30T05:52:56;6.18;;;2.38;;
43891;SDS011;29555;45.350;5.578;2023-07-30T05:55:21;4.35;;;2.90;;
43891;SDS011;29555;45.350;5.578;2023-07-30T05:57:47;5.38;;;3.20;;
43891;SDS011;29555;45.350;5.578;2023-07-30T06:00:13;7.00;;;3.75;;
43891;SDS011;29555;45.350;5.578;2023-07-30T06:02:38;4.53;;;3.67;;
43891;SDS011;29555;45.350;5.578;2023-07-30T06:05:04;5.75;;;3.63;;
43891;SDS011;29555;45.350;5.578;2023-07-30T06:07:29;8.23;;;3.30;;
43891;SDS011;29555;45.350;5.578;2023-07-30T06:09:55;11.45;;;3.50;;
43891;SDS011;29555;45.350;5.578;2023-07-30T06:12:20;8.38;;;3.72;;
43891;SDS011;29555;45.350;5.578;2023-07-30T06:14:46;6.57;;;3.22;;
43891;SDS011;29555;45.350;5.578;2023-07-30T06:17:11;4.43;;;3.42;;
43891;SDS011;29555;45.350;5.578;2023-07-30T06:19:36;5.95;;;3.17;;
43891;SDS011;29555;45.350;5.578;2023-07-30T06:22:03;7.88;;;3.72;;
43891;SDS011;29555;45.350;5.578;2023-07-30T06:24:28;8.73;;;3.75;;
43891;SDS011;29555;45.350;5.578;2023-07-30T06:26:54;4.38;;;3.17;;
43891;SDS011;29555;45.350;5.578;2023-07-30T06:29:19;5.35;;;3.75;;
43891;SDS011;29555;45.350;5.578;2023-07-30T06:31:44;6.65;;;3.13;;
43891;SDS011;29555;45.350;5.578;2023-07-30T06:34:10;3.92;;;3.60;;
43891;SDS011;29555;45.350;5.578;2023-07-30T06:36:35;7.18;;;4.20;;
43891;SDS011;29555;45.350;5.578;2023-07-30T06:39:00;5.05;;;4.45;;
43891;SDS011;29555;45.350;5.578;2023-07-30T06:41:26;5.68;;;3.78;;
43891;SDS011;29555;45.350;5.578;2023-07-30T06:43:51;4.40;;;4.00;;
43891;SDS011;29555;45.350;5.578;2023-07-30T06:46:17;3.60;;;3.30;;
43891;SDS011;29555;45.350;5.578;2023-07-30T06:48:42;7.22;;;4.65;;
43891;SDS011;29555;45.350;5.578;2023-07-30T06:51:09;5.28;;;4.22;;
43891;SDS011;29555;45.350;5.578;2023-07-30T06:53:34;5.80;;;3.80;;
43891;SDS011;29555;45.350;5.578;2023-07-30T06:56:00;7.93;;;4.32;;
43891;SDS011;29555;45.350;5.578;2023-07-30T06:58:25;6.93;;;4.45;;
43891;SDS011;29555;45.350;5.578;2023-07-30T07:00:51;7.85;;;4.40;;
43891;SDS011;29555;45.350;5.578;2023-07-30T07:03:17;10.93;;;4.25;;
43891;SDS011;29555;45.350;5.578;2023-07-30T07:05:42;8.20;;;4.30;;
43891;SDS011;29555;45.350;5.578;2023-07-30T07:08:08;8.10;;;3.95;;
43891;SDS011;29555;45.350;5.578;2023-07-30T07:10:33;5.93;;;4.72;;
43891;SDS011;29555;45.350;5.578;2023-07-30T07:12:58;4.50;;;3.80;;
43891;SDS011;29555;45.350;5.578;2023-07-30T07:15:24;8.48;;;4.18;;
43891;SDS011;29555;45.350;5.578;2023-07-30T07:17:49;4.47;;;4.07;;
43891;SDS011;29555;45.350;5.578;2023-07-30T07:20:14;5.68;;;5.18;;
43891;SDS011;29555;45.350;5.578;2023-07-30T07:22:40;5.68;;;4.70;;
43891;SDS011;29555;45.350;5.578;2023-07-30T07:25:05;6.45;;;4.18;;
43891;SDS011;29555;45.350;5.578;2023-07-30T07:27:31;5.93;;;5.00;;
43891;SDS011;29555;45.350;5.578;2023-07-30T07:29:56;5.10;;;4.60;;
43891;SDS011;29555;45.350;5.578;2023-07-30T07:32:22;6.20;;;4.75;;
43891;SDS011;29555;45.350;5.578;2023-07-30T07:34:47;5.22;;;4.35;;
43891;SDS011;29555;45.350;5.578;2023-07-30T07:37:16;7.10;;;4.10;;
43891;SDS011;29555;45.350;5.578;2023-07-30T07:39:43;5.25;;;3.75;;
43891;SDS011;29555;45.350;5.578;2023-07-30T07:42:09;7.43;;;5.22;;
43891;SDS011;29555;45.350;5.578;2023-07-30T07:44:35;6.45;;;4.45;;
43891;SDS011;29555;45.350;5.578;2023-07-30T07:47:01;4.20;;;3.65;;
43891;SDS011;29555;45.350;5.578;2023-07-30T07:49:27;5.07;;;3.75;;
43891;SDS011;29555;45.350;5.578;2023-07-30T07:51:52;4.25;;;3.72;;
43891;SDS011;29555;45.350;5.578;2023-07-30T07:54:17;5.95;;;4.68;;
43891;SDS011;29555;45.350;5.578;2023-07-30T07:56:43;7.18;;;5.30;;
43891;SDS011;29555;45.350;5.578;2023-07-30T07:59:08;5.43;;;4.82;;
43891;SDS011;29555;45.350;5.578;2023-07-30T08:01:33;6.15;;;5.28;;
43891;SDS011;29555;45.350;5.578;2023-07-30T08:03:59;10.35;;;8.15;;
43891;SDS011;29555;45.350;5.578;2023-07-30T08:06:24;7.03;;;6.32;;
43891;SDS011;29555;45.350;5.578;2023-07-30T08:08:50;5.72;;;4.75;;
43891;SDS011;29555;45.350;5.578;2023-07-30T08:11:15;11.32;;;5.80;;
43891;SDS011;29555;45.350;5.578;2023-07-30T08:13:40;5.53;;;4.20;;
43891;SDS011;29555;45.350;5.578;2023-07-30T08:16:06;7.57;;;3.88;;
43891;SDS011;29555;45.350;5.578;2023-07-30T08:18:31;8.40;;;4.13;;
43891;SDS011;29555;45.350;5.578;2023-07-30T08:20:57;7.25;;;4.28;;
43891;SDS011;29555;45.350;5.578;2023-07-30T08:23:22;3.80;;;3.03;;
43891;SDS011;29555;45.350;5.578;2023-07-30T08:31:24;5.35;;;4.05;;
43891;SDS011;29555;45.350;5.578;2023-07-30T08:33:49;6.20;;;3.88;;
43891;SDS011;29555;45.350;5.578;2023-07-30T08:36:14;5.38;;;3.90;;
43891;SDS011;29555;45.350;5.578;2023-07-30T08:38:40;4.40;;;4.00;;
43891;SDS011;29555;45.350;5.578;2023-07-30T08:41:05;4.55;;;3.38;;
43891;SDS011;29555;45.350;5.578;2023-07-30T08:43:31;9.05;;;4.85;;
43891;SDS011;29555;45.350;5.578;2023-07-30T08:45:56;5.40;;;3.50;;
43891;SDS011;29555;45.350;5.578;2023-07-30T08:48:22;5.80;;;3.60;;
43891;SDS011;29555;45.350;5.578;2023-07-30T08:50:48;5.10;;;3.67;;
43891;SDS011;29555;45.350;5.578;2023-07-30T08:53:14;4.63;;;4.15;;
43891;SDS011;29555;45.350;5.578;2023-07-30T08:55:39;3.47;;;3.10;;
43891;SDS011;29555;45.350;5.578;2023-07-30T08:58:05;3.72;;;2.75;;
43891;SDS011;29555;45.350;5.578;2023-07-30T09:00:32;7.05;;;3.67;;
43891;SDS011;29555;45.350;5.578;2023-07-30T09:03:02;4.35;;;3.63;;
43891;SDS011;29555;45.350;5.578;2023-07-30T09:05:29;3.13;;;2.58;;
43891;SDS011;29555;45.350;5.578;2023-07-30T09:07:54;4.00;;;3.35;;
43891;SDS011;29555;45.350;5.578;2023-07-30T09:10:20;4.05;;;3.25;;
43891;SDS011;29555;45.350;5.578;2023-07-30T09:12:46;3.50;;;3.20;;
43891;SDS011;29555;45.350;5.578;2023-07-30T09:15:18;2.75;;;2.55;;
43891;SDS011;29555;45.350;5.578;2023-07-30T09:17:45;6.00;;;3.20;;
43891;SDS011;29555;45.350;5.578;2023-07-30T09:20:10;5.10;;;3.45;;
43891;SDS011;29555;45.350;5.578;2023-07-30T09:22:36;3.10;;;2.80;;
43891;SDS011;29555;45.350;5.578;2023-07-30T09:25:04;6.38;;;3.55;;
43891;SDS011;29555;45.350;5.578;2023-07-30T09:27:30;3.13;;;2.83;;
43891;SDS011;29555;45.350;5.578;2023-07-30T09:29:56;3.42;;;3.10;;
43891;SDS011;29555;45.350;5.578;2023-07-30T09:32:26;14.15;;;2.97;;
43891;SDS011;29555;45.350;5.578;2023-07-30T09:34:52;3.63;;;2.28;;
43891;SDS011;29555;45.350;5.578;2023-07-30T09:37:18;3.83;;;2.35;;
43891;SDS011;29555;45.350;5.578;2023-07-30T09:39:43;2.40;;;2.20;;
43891;SDS011;29555;45.350;5.578;2023-07-30T09:42:12;2.28;;;2.08;;
43891;SDS011;29555;45.350;5.578;2023-07-30T09:44:38;2.83;;;2.58;;
43891;SDS011;29555;45.350;5.578;2023-07-30T09:47:04;18.13;;;4.45;;
43891;SDS011;29555;45.350;5.578;2023-07-30T09:49:31;24.83;;;3.70;;
43891;SDS011;29555;45.350;5.578;2023-07-30T09:51:57;9.88;;;3.70;;
43891;SDS011;29555;45.350;5.578;2023-07-30T09:54:23;5.18;;;2.33;;
43891;SDS011;29555;45.350;5.578;2023-07-30T09:56:48;6.05;;;2.00;;
43891;SDS011;29555;45.350;5.578;2023-07-30T09:59:13;1.65;;;1.55;;
43891;SDS011;29555;45.350;5.578;2023-07-30T10:01:43;1.17;;;1.08;;
43891;SDS011;29555;45.350;5.578;2023-07-30T10:04:09;4.28;;;1.45;;
43891;SDS011;29555;45.350;5.578;2023-07-30T10:06:37;1.63;;;1.27;;
43891;SDS011;29555;45.350;5.578;2023-07-30T10:09:05;2.10;;;1.95;;
43891;SDS011;29555;45.350;5.578;2023-07-30T10:11:32;2.78;;;1.58;;
43891;SDS011;29555;45.350;5.578;2023-07-30T10:13:58;1.70;;;1.60;;
43891;SDS011;29555;45.350;5.578;2023-07-30T10:16:27;1.60;;;1.50;;
43891;SDS011;29555;45.350;5.578;2023-07-30T10:18:57;1.75;;;1.05;;
43891;SDS011;29555;45.350;5.578;2023-07-30T10:21:23;1.80;;;1.70;;
43891;SDS011;29555;45.350;5.578;2023-07-30T10:24:02;0.98;;;0.98;;
43891;SDS011;29555;45.350;5.578;2023-07-30T10:26:30;1.25;;;1.15;;
43891;SDS011;29555;45.350;5.578;2023-07-30T10:31:42;1.08;;;1.02;;
43891;SDS011;29555;45.350;5.578;2023-07-30T10:34:09;1.38;;;0.82;;
43891;SDS011;29555;45.350;5.578;2023-07-30T10:39:15;1.65;;;1.55;;
43891;SDS011;29555;45.350;5.578;2023-07-30T10:42:00;3.80;;;1.40;;
43891;SDS011;29555;45.350;5.578;2023-07-30T10:46:55;3.03;;;1.65;;
43891;SDS011;29555;45.350;5.578;2023-07-30T10:49:21;2.30;;;1.50;;
43891;SDS011;29555;45.350;5.578;2023-07-30T10:51:47;0.80;;;0.80;;
43891;SDS011;29555;45.350;5.578;2023-07-30T10:54:13;0.80;;;0.73;;
43891;SDS011;29555;45.350;5.578;2023-07-30T10:56:40;0.85;;;0.82;;
43891;SDS011;29555;45.350;5.578;2023-07-30T10:59:06;0.68;;;0.68;;
43891;SDS011;29555;45.350;5.578;2023-07-30T11:01:35;1.20;;;1.10;;
43891;SDS011;29555;45.350;5.578;2023-07-30T11:04:05;1.45;;;1.23;;
43891;SDS011;29555;45.350;5.578;2023-07-30T11:06:31;2.13;;;1.80;;
43891;SDS011;29555;45.350;5.578;2023-07-30T11:08:56;0.90;;;0.90;;
43891;SDS011;29555;45.350;5.578;2023-07-30T11:11:22;1.58;;;0.90;;
43891;SDS011;29555;45.350;5.578;2023-07-30T11:13:49;1.42;;;1.33;;
43891;SDS011;29555;45.350;5.578;2023-07-30T11:16:15;1.50;;;1.08;;
43891;SDS011;29555;45.350;5.578;2023-07-30T11:18:41;2.67;;;1.25;;
43891;SDS011;29555;45.350;5.578;2023-07-30T11:21:08;1.85;;;1.38;;
43891;SDS011;29555;45.350;5.578;2023-07-30T11:23:35;1.45;;;1.35;;
43891;SDS011;29555;45.350;5.578;2023-07-30T11:26:02;1.52;;;1.40;;
43891;SDS011;29555;45.350;5.578;2023-07-30T11:28:35;2.30;;;1.85;;
43891;SDS011;29555;45.350;5.578;2023-07-30T11:31:04;1.27;;;1.27;;
43891;SDS011;29555;45.350;5.578;2023-07-30T11:33:41;1.55;;;1.45;;
43891;SDS011;29555;45.350;5.578;2023-07-30T11:36:09;1.02;;;0.75;;
43891;SDS011;29555;45.350;5.578;2023-07-30T11:38:37;1.08;;;0.98;;
43891;SDS011;29555;45.350;5.578;2023-07-30T11:41:03;1.35;;;1.15;;
43891;SDS011;29555;45.350;5.578;2023-07-30T11:43:30;1.33;;;1.17;;
43891;SDS011;29555;45.350;5.578;2023-07-30T11:46:15;1.33;;;1.15;;
43891;SDS011;29555;45.350;5.578;2023-07-30T11:48:43;1.42;;;1.17;;
43891;SDS011;29555;45.350;5.578;2023-07-30T11:51:23;1.05;;;1.05;;
43891;SDS011;29555;45.350;5.578;2023-07-30T11:58:54;1.35;;;1.08;;
43891;SDS011;29555;45.350;5.578;2023-07-30T12:01:28;3.20;;;0.95;;
43891;SDS011;29555;45.350;5.578;2023-07-30T12:03:56;0.85;;;0.85;;
43891;SDS011;29555;45.350;5.578;2023-07-30T12:06:22;1.13;;;0.90;;
43891;SDS011;29555;45.350;5.578;2023-07-30T12:08:48;0.95;;;0.95;;
43891;SDS011;29555;45.350;5.578;2023-07-30T12:11:14;1.40;;;1.30;;
43891;SDS011;29555;45.350;5.578;2023-07-30T12:13:43;1.08;;;1.00;;
43891;SDS011;29555;45.350;5.578;2023-07-30T12:16:10;2.17;;;1.25;;
43891;SDS011;29555;45.350;5.578;2023-07-30T12:18:37;0.75;;;0.60;;
43891;SDS011;29555;45.350;5.578;2023-07-30T12:21:02;0.90;;;0.90;;
43891;SDS011;29555;45.350;5.578;2023-07-30T12:23:29;6.38;;;1.30;;
43891;SDS011;29555;45.350;5.578;2023-07-30T12:25:55;0.95;;;0.95;;
43891;SDS011;29555;45.350;5.578;2023-07-30T12:28:20;1.55;;;1.02;;
43891;SDS011;29555;45.350;5.578;2023-07-30T12:30:45;1.10;;;1.00;;
43891;SDS011;29555;45.350;5.578;2023-07-30T12:33:11;1.40;;;1.30;;
43891;SDS011;29555;45.350;5.578;2023-07-30T12:35:36;2.42;;;0.80;;
43891;SDS011;29555;45.350;5.578;2023-07-30T12:38:01;1.02;;;1.00;;
43891;SDS011;29555;45.350;5.578;2023-07-30T12:40:27;1.15;;;1.02;;
43891;SDS011;29555;45.350;5.578;2023-07-30T12:42:54;0.95;;;0.85;;
43891;SDS011;29555;45.350;5.578;2023-07-30T12:45:20;1.60;;;0.98;;
43891;SDS011;29555;45.350;5.578;2023-07-30T12:47:46;1.20;;;0.68;;
43891;SDS011;29555;45.350;5.578;2023-07-30T12:50:11;2.30;;;0.88;;
43891;SDS011;29555;45.350;5.578;2023-07-30T12:52:37;1.15;;;1.15;;
43891;SDS011;29555;45.350;5.578;2023-07-30T12:55:02;1.27;;;1.13;;
43891;SDS011;29555;45.350;5.578;2023-07-30T12:57:29;1.58;;;1.15;;
43891;SDS011;29555;45.350;5.578;2023-07-30T12:59:55;1.48;;;1.38;;
43891;SDS011;29555;45.350;5.578;2023-07-30T13:02:21;1.27;;;1.05;;
43891;SDS011;29555;45.350;5.578;2023-07-30T13:04:46;1.17;;;1.17;;
43891;SDS011;29555;45.350;5.578;2023-07-30T13:07:12;0.70;;;0.70;;
43891;SDS011;29555;45.350;5.578;2023-07-30T13:09:37;1.60;;;0.68;;
43891;SDS011;29555;45.350;5.578;2023-07-30T13:12:02;1.30;;;1.20;;
43891;SDS011;29555;45.350;5.578;2023-07-30T13:14:28;0.80;;;0.70;;
43891;SDS011;29555;45.350;5.578;2023-07-30T13:16:53;1.95;;;1.08;;
43891;SDS011;29555;45.350;5.578;2023-07-30T13:19:18;1.23;;;0.97;;
43891;SDS011;29555;45.350;5.578;2023-07-30T13:21:44;1.20;;;1.10;;
43891;SDS011;29555;45.350;5.578;2023-07-30T13:24:09;0.80;;;0.80;;
43891;SDS011;29555;45.350;5.578;2023-07-30T13:26:35;2.00;;;1.70;;
43891;SDS011;29555;45.350;5.578;2023-07-30T13:29:00;12.07;;;1.02;;
43891;SDS011;29555;45.350;5.578;2023-07-30T13:31:26;0.70;;;0.70;;
43891;SDS011;29555;45.350;5.578;2023-07-30T13:33:51;0.98;;;0.93;;
43891;SDS011;29555;45.350;5.578;2023-07-30T13:36:17;1.00;;;1.00;;
43891;SDS011;29555;45.350;5.578;2023-07-30T13:38:42;0.75;;;0.73;;
43891;SDS011;29555;45.350;5.578;2023-07-30T13:41:08;0.60;;;0.60;;
43891;SDS011;29555;45.350;5.578;2023-07-30T13:43:34;2.25;;;1.30;;
43891;SDS011;29555;45.350;5.578;2023-07-30T13:45:59;0.50;;;0.50;;
43891;SDS011;29555;45.350;5.578;2023-07-30T13:48:25;1.00;;;1.00;;
43891;SDS011;29555;45.350;5.578;2023-07-30T13:50:51;0.50;;;0.50;;
43891;SDS011;29555;45.350;5.578;2023-07-30T13:53:17;0.85;;;0.85;;
43891;SDS011;29555;45.350;5.578;2023-07-30T13:55:42;1.02;;;0.93;;
43891;SDS011;29555;45.350;5.578;2023-07-30T13:58:08;0.60;;;0.60;;
43891;SDS011;29555;45.350;5.578;2023-07-30T14:00:34;2.25;;;0.63;;
43891;SDS011;29555;45.350;5.578;2023-07-30T14:02:59;0.70;;;0.70;;
43891;SDS011;29555;45.350;5.578;2023-07-30T14:05:25;0.70;;;0.70;;
43891;SDS011;29555;45.350;5.578;2023-07-30T14:07:50;0.60;;;0.50;;
43891;SDS011;29555;45.350;5.578;2023-07-30T14:10:18;0.65;;;0.60;;
43891;SDS011;29555;45.350;5.578;2023-07-30T14:12:44;6.28;;;0.95;;
43891;SDS011;29555;45.350;5.578;2023-07-30T14:15:10;0.68;;;0.68;;
43891;SDS011;29555;45.350;5.578;2023-07-30T14:17:35;0.60;;;0.60;;
43891;SDS011;29555;45.350;5.578;2023-07-30T14:20:00;1.15;;;0.65;;
43891;SDS011;29555;45.350;5.578;2023-07-30T14:22:26;0.75;;;0.60;;
43891;SDS011;29555;45.350;5.578;2023-07-30T14:24:51;0.87;;;0.60;;
43891;SDS011;29555;45.350;5.578;2023-07-30T14:27:17;0.50;;;0.50;;
43891;SDS011;29555;45.350;5.578;2023-07-30T14:29:42;0.77;;;0.77;;
43891;SDS011;29555;45.350;5.578;2023-07-30T14:32:08;0.60;;;0.60;;
43891;SDS011;29555;45.350;5.578;2023-07-30T14:34:33;1.42;;;1.05;;
43891;SDS011;29555;45.350;5.578;2023-07-30T14:36:59;1.02;;;0.82;;
43891;SDS011;29555;45.350;5.578;2023-07-30T14:39:24;2.58;;;0.85;;
43891;SDS011;29555;45.350;5.578;2023-07-30T14:41:49;0.98;;;0.90;;
43891;SDS011;29555;45.350;5.578;2023-07-30T14:44:15;0.88;;;0.82;;
43891;SDS011;29555;45.350;5.578;2023-07-30T14:46:40;1.67;;;1.03;;
43891;SDS011;29555;45.350;5.578;2023-07-30T14:49:06;1.00;;;0.88;;
43891;SDS011;29555;45.350;5.578;2023-07-30T14:51:31;1.02;;;0.90;;
43891;SDS011;29555;45.350;5.578;2023-07-30T14:53:56;1.60;;;1.20;;
43891;SDS011;29555;45.350;5.578;2023-07-30T14:56:22;0.93;;;0.68;;
43891;SDS011;29555;45.350;5.578;2023-07-30T14:58:47;0.73;;;0.73;;